sensor_id;sensor_type;location;lat;lon;timestamp;temperature;humidity
24446;DHT22;13347;50.984;5.822;2023-02-28T00:01:36;-0.80;1.00
24446;DHT22;13347;50.984;5.822;2023-02-28T00:04:03;-0.70;1.00
24446;DHT22;13347;50.984;5.822;2023-02-28T00:06:30;-0.70;1.00
24446;DHT22;13347;50.984;5.822;2023-02-28T00:08:57;-0.90;1.00
24446;DHT22;13347;50.984;5.822;2023-02-28T00:11:24;-0.90;1.00
24446;DHT22;13347;50.984;5.822;2023-02-28T00:13:51;-0.90;53.20
24446;DHT22;13347;50.984;5.822;2023-02-28T00:16:18;-0.80;99.90
24446;DHT22;13347;50.984;5.822;2023-02-28T00:18:47;-0.70;99.90
24446;DHT22;13347;50.984;5.822;2023-02-28T00:21:14;-0.60;99.90
24446;DHT22;13347;50.984;5.822;2023-02-28T00:23:41;-0.60;99.90
24446;DHT22;13347;50.984;5.822;2023-02-28T00:26:09;-0.60;34.60
24446;DHT22;13347;50.984;5.822;2023-02-28T00:28:36;-0.60;99.90
24446;DHT22;13347;50.984;5.822;2023-02-28T00:31:03;-0.60;99.90
24446;DHT22;13347;50.984;5.822;2023-02-28T00:33:30;-0.60;99.90
24446;DHT22;13347;50.984;5.822;2023-02-28T00:36:02;-0.60;99.90
24446;DHT22;13347;50.984;5.822;2023-02-28T00:38:30;-0.70;99.90
24446;DHT22;13347;50.984;5.822;2023-02-28T00:40:57;-0.70;99.90
24446;DHT22;13347;50.984;5.822;2023-02-28T00:43:30;-0.80;99.90
24446;DHT22;13347;50.984;5.822;2023-02-28T00:45:57;-0.90;99.90
24446;DHT22;13347;50.984;5.822;2023-02-28T00:48:24;-0.90;1.00
24446;DHT22;13347;50.984;5.822;2023-02-28T00:50:51;-1.00;1.00
24446;DHT22;13347;50.984;5.822;2023-02-28T00:53:19;-1.00;1.00
24446;DHT22;13347;50.984;5.822;2023-02-28T00:55:48;-0.80;1.00
24446;DHT22;13347;50.984;5.822;2023-02-28T00:58:15;-0.80;1.00
24446;DHT22;13347;50.984;5.822;2023-02-28T01:00:42;-0.70;1.00
24446;DHT22;13347;50.984;5.822;2023-02-28T01:03:09;-0.80;1.00
24446;DHT22;13347;50.984;5.822;2023-02-28T01:05:36;-1.00;1.00
24446;DHT22;13347;50.984;5.822;2023-02-28T01:08:03;-1.10;1.00
24446;DHT22;13347;50.984;5.822;2023-02-28T01:10:31;-1.20;1.00
24446;DHT22;13347;50.984;5.822;2023-02-28T01:12:58;-1.10;1.00
24446;DHT22;13347;50.984;5.822;2023-02-28T01:15:25;-1.20;1.00
24446;DHT22;13347;50.984;5.822;2023-02-28T01:17:52;-1.40;1.00
24446;DHT22;13347;50.984;5.822;2023-02-28T01:20:19;-1.30;99.90
24446;DHT22;13347;50.984;5.822;2023-02-28T01:22:46;-1.20;99.90
24446;DHT22;13347;50.984;5.822;2023-02-28T01:25:13;-1.20;42.60
24446;DHT22;13347;50.984;5.822;2023-02-28T01:27:41;-1.20;95.80
24446;DHT22;13347;50.984;5.822;2023-02-28T01:30:08;-1.20;19.80
24446;DHT22;13347;50.984;5.822;2023-02-28T01:32:36;-1.40;99.90
24446;DHT22;13347;50.984;5.822;2023-02-28T01:35:03;-1.50;99.90
24446;DHT22;13347;50.984;5.822;2023-02-28T01:37:30;-1.50;1.00
24446;DHT22;13347;50.984;5.822;2023-02-28T01:39:57;-1.60;1.00
24446;DHT22;13347;50.984;5.822;2023-02-28T01:42:24;-1.50;1.00
24446;DHT22;13347;50.984;5.822;2023-02-28T01:45:03;-1.50;1.00
24446;DHT22;13347;50.984;5.822;2023-02-28T01:47:31;-1.50;1.00
24446;DHT22;13347;50.984;5.822;2023-02-28T01:49:58;-1.60;1.00
24446;DHT22;13347;50.984;5.822;2023-02-28T01:52:27;-1.70;1.00
24446;DHT22;13347;50.984;5.822;2023-02-28T01:54:55;-1.70;1.00
24446;DHT22;13347;50.984;5.822;2023-02-28T01:57:24;-1.70;1.00
24446;DHT22;13347;50.984;5.822;2023-02-28T01:59:52;-1.70;99.90
24446;DHT22;13347;50.984;5.822;2023-02-28T02:02:21;-1.80;99.90
24446;DHT22;13347;50.984;5.822;2023-02-28T02:04:50;-1.80;99.90
24446;DHT22;13347;50.984;5.822;2023-02-28T02:07:18;-1.80;99.90
24446;DHT22;13347;50.984;5.822;2023-02-28T02:09:45;-1.70;99.90
24446;DHT22;13347;50.984;5.822;2023-02-28T02:12:14;-1.60;99.90
24446;DHT22;13347;50.984;5.822;2023-02-28T02:14:43;-1.70;99.90
24446;DHT22;13347;50.984;5.822;2023-02-28T02:17:17;-1.80;99.90
24446;DHT22;13347;50.984;5.822;2023-02-28T02:19:58;-2.10;99.90
24446;DHT22;13347;50.984;5.822;2023-02-28T02:25:16;-2.20;1.00
24446;DHT22;13347;50.984;5.822;2023-02-28T02:27:58;-2.20;1.00
24446;DHT22;13347;50.984;5.822;2023-02-28T02:30:34;-2.10;1.00
24446;DHT22;13347;50.984;5.822;2023-02-28T02:35:57;-2.50;1.00
24446;DHT22;13347;50.984;5.822;2023-02-28T02:38:30;-2.80;1.00
24446;DHT22;13347;50.984;5.822;2023-02-28T02:40:59;-2.90;1.00
24446;DHT22;13347;50.984;5.822;2023-02-28T02:43:29;-3.00;1.00
24446;DHT22;13347;50.984;5.822;2023-02-28T02:45:57;-3.00;99.90
24446;DHT22;13347;50.984;5.822;2023-02-28T02:48:25;-3.00;99.90
24446;DHT22;13347;50.984;5.822;2023-02-28T02:50:54;-2.90;1.00
24446;DHT22;13347;50.984;5.822;2023-02-28T02:53:24;-3.00;1.00
24446;DHT22;13347;50.984;5.822;2023-02-28T02:55:53;-3.20;1.00
24446;DHT22;13347;50.984;5.822;2023-02-28T02:58:22;-3.10;1.00
24446;DHT22;13347;50.984;5.822;2023-02-28T03:00:50;-2.90;1.00
24446;DHT22;13347;50.984;5.822;2023-02-28T03:03:18;-2.80;1.00
24446;DHT22;13347;50.984;5.822;2023-02-28T03:05:50;-2.80;1.00
24446;DHT22;13347;50.984;5.822;2023-02-28T03:08:17;-2.70;1.00
24446;DHT22;13347;50.984;5.822;2023-02-28T03:10:46;-2.60;1.00
24446;DHT22;13347;50.984;5.822;2023-02-28T03:13:19;-2.80;1.00
24446;DHT22;13347;50.984;5.822;2023-02-28T03:16:04;-2.70;1.00
24446;DHT22;13347;50.984;5.822;2023-02-28T03:18:36;-2.70;1.00
24446;DHT22;13347;50.984;5.822;2023-02-28T03:21:06;-2.50;1.00
24446;DHT22;13347;50.984;5.822;2023-02-28T03:23:42;-2.40;1.00
24446;DHT22;13347;50.984;5.822;2023-02-28T03:26:13;-2.10;1.00
24446;DHT22;13347;50.984;5.822;2023-02-28T03:28:46;-1.80;1.00
24446;DHT22;13347;50.984;5.822;2023-02-28T03:31:18;-1.70;1.00
24446;DHT22;13347;50.984;5.822;2023-02-28T03:33:47;-1.60;1.00
24446;DHT22;13347;50.984;5.822;2023-02-28T03:36:22;-1.70;99.90
24446;DHT22;13347;50.984;5.822;2023-02-28T03:38:51;-1.80;99.90
24446;DHT22;13347;50.984;5.822;2023-02-28T03:41:22;-1.90;99.90
24446;DHT22;13347;50.984;5.822;2023-02-28T03:43:50;-2.00;99.90
24446;DHT22;13347;50.984;5.822;2023-02-28T03:46:20;-1.90;1.00
24446;DHT22;13347;50.984;5.822;2023-02-28T03:48:50;-1.80;1.00
24446;DHT22;13347;50.984;5.822;2023-02-28T03:51:18;-1.60;1.00
24446;DHT22;13347;50.984;5.822;2023-02-28T03:53:47;-1.50;1.00
24446;DHT22;13347;50.984;5.822;2023-02-28T03:56:18;-1.60;1.00
24446;DHT22;13347;50.984;5.822;2023-02-28T03:58:49;-1.40;1.00
24446;DHT22;13347;50.984;5.822;2023-02-28T04:01:19;-1.50;99.90
24446;DHT22;13347;50.984;5.822;2023-02-28T04:03:46;-1.60;99.90
24446;DHT22;13347;50.984;5.822;2023-02-28T04:06:14;-1.60;99.90
24446;DHT22;13347;50.984;5.822;2023-02-28T04:08:42;-1.50;99.90
24446;DHT22;13347;50.984;5.822;2023-02-28T04:11:12;-1.40;99.90
24446;DHT22;13347;50.984;5.822;2023-02-28T04:13:41;-1.30;99.90
24446;DHT22;13347;50.984;5.822;2023-02-28T04:16:10;-1.30;1.00
24446;DHT22;13347;50.984;5.822;2023-02-28T04:18:37;-1.30;1.00
24446;DHT22;13347;50.984;5.822;2023-02-28T04:21:05;-1.50;1.00
24446;DHT22;13347;50.984;5.822;2023-02-28T04:23:32;-1.70;1.00
24446;DHT22;13347;50.984;5.822;2023-02-28T04:25:59;-1.70;1.00
24446;DHT22;13347;50.984;5.822;2023-02-28T04:28:26;-1.80;1.00
24446;DHT22;13347;50.984;5.822;2023-02-28T04:30:54;-1.90;99.90
24446;DHT22;13347;50.984;5.822;2023-02-28T04:33:22;-2.00;99.90
24446;DHT22;13347;50.984;5.822;2023-02-28T04:35:57;-2.00;99.90
24446;DHT22;13347;50.984;5.822;2023-02-28T04:38:24;-2.00;99.90
24446;DHT22;13347;50.984;5.822;2023-02-28T04:40:51;-2.10;1.00
24446;DHT22;13347;50.984;5.822;2023-02-28T04:43:18;-2.00;1.00
24446;DHT22;13347;50.984;5.822;2023-02-28T04:45:45;-1.90;1.00
24446;DHT22;13347;50.984;5.822;2023-02-28T04:48:11;-1.90;1.00
24446;DHT22;13347;50.984;5.822;2023-02-28T04:50:40;-2.00;99.90
24446;DHT22;13347;50.984;5.822;2023-02-28T04:53:07;-2.10;99.90
24446;DHT22;13347;50.984;5.822;2023-02-28T04:55:34;-2.10;1.00
24446;DHT22;13347;50.984;5.822;2023-02-28T04:58:01;-2.10;1.00
24446;DHT22;13347;50.984;5.822;2023-02-28T05:00:27;-2.30;1.00
24446;DHT22;13347;50.984;5.822;2023-02-28T05:02:54;-2.40;1.00
24446;DHT22;13347;50.984;5.822;2023-02-28T05:05:21;-2.60;1.00
24446;DHT22;13347;50.984;5.822;2023-02-28T05:07:50;-2.70;1.00
24446;DHT22;13347;50.984;5.822;2023-02-28T05:10:17;-2.50;1.00
24446;DHT22;13347;50.984;5.822;2023-02-28T05:12:43;-2.40;1.00
24446;DHT22;13347;50.984;5.822;2023-02-28T05:15:11;-2.50;1.00
24446;DHT22;13347;50.984;5.822;2023-02-28T05:17:39;-2.60;1.00
24446;DHT22;13347;50.984;5.822;2023-02-28T05:20:06;-2.60;1.00
24446;DHT22;13347;50.984;5.822;2023-02-28T05:22:36;-2.50;1.00
24446;DHT22;13347;50.984;5.822;2023-02-28T05:25:04;-2.40;1.00
24446;DHT22;13347;50.984;5.822;2023-02-28T05:27:31;-2.50;1.00
24446;DHT22;13347;50.984;5.822;2023-02-28T05:29:58;-2.10;1.00
24446;DHT22;13347;50.984;5.822;2023-02-28T05:32:28;-2.10;1.00
24446;DHT22;13347;50.984;5.822;2023-02-28T05:34:55;-2.40;1.00
24446;DHT22;13347;50.984;5.822;2023-02-28T05:37:22;-2.50;1.00
24446;DHT22;13347;50.984;5.822;2023-02-28T05:39:49;-2.60;1.00
24446;DHT22;13347;50.984;5.822;2023-02-28T05:42:17;-2.60;1.00
24446;DHT22;13347;50.984;5.822;2023-02-28T05:44:44;-2.70;1.00
24446;DHT22;13347;50.984;5.822;2023-02-28T05:47:11;-2.70;1.00
24446;DHT22;13347;50.984;5.822;2023-02-28T05:49:40;-2.60;1.00
24446;DHT22;13347;50.984;5.822;2023-02-28T05:52:07;-2.70;1.00
24446;DHT22;13347;50.984;5.822;2023-02-28T05:54:34;-2.70;1.00
24446;DHT22;13347;50.984;5.822;2023-02-28T05:57:01;-2.80;1.00
24446;DHT22;13347;50.984;5.822;2023-02-28T05:59:30;-2.80;1.00
24446;DHT22;13347;50.984;5.822;2023-02-28T06:01:56;-2.80;1.00
24446;DHT22;13347;50.984;5.822;2023-02-28T06:04:23;-2.70;1.00
24446;DHT22;13347;50.984;5.822;2023-02-28T06:06:50;-2.50;1.00
24446;DHT22;13347;50.984;5.822;2023-02-28T06:09:17;-2.40;1.00
24446;DHT22;13347;50.984;5.822;2023-02-28T06:11:44;-2.40;1.00
24446;DHT22;13347;50.984;5.822;2023-02-28T06:14:12;-2.40;1.00
24446;DHT22;13347;50.984;5.822;2023-02-28T06:16:42;-2.40;1.00
24446;DHT22;13347;50.984;5.822;2023-02-28T06:19:09;-2.40;1.00
24446;DHT22;13347;50.984;5.822;2023-02-28T06:21:36;-2.50;1.00
24446;DHT22;13347;50.984;5.822;2023-02-28T06:24:03;-2.50;1.00
24446;DHT22;13347;50.984;5.822;2023-02-28T06:26:31;-2.50;1.00
24446;DHT22;13347;50.984;5.822;2023-02-28T06:28:57;-2.50;1.00
24446;DHT22;13347;50.984;5.822;2023-02-28T06:31:26;-2.50;1.00
24446;DHT22;13347;50.984;5.822;2023-02-28T06:33:55;-2.50;1.00
24446;DHT22;13347;50.984;5.822;2023-02-28T06:36:22;-2.50;1.00
24446;DHT22;13347;50.984;5.822;2023-02-28T06:38:49;-2.50;1.00
24446;DHT22;13347;50.984;5.822;2023-02-28T06:41:20;-2.50;1.00
24446;DHT22;13347;50.984;5.822;2023-02-28T06:43:47;-2.40;1.00
24446;DHT22;13347;50.984;5.822;2023-02-28T06:46:14;-2.40;99.90
24446;DHT22;13347;50.984;5.822;2023-02-28T06:48:42;-2.30;99.90
24446;DHT22;13347;50.984;5.822;2023-02-28T06:51:11;-2.30;99.90
24446;DHT22;13347;50.984;5.822;2023-02-28T06:53:39;-2.30;99.90
24446;DHT22;13347;50.984;5.822;2023-02-28T06:56:06;-2.30;99.90
24446;DHT22;13347;50.984;5.822;2023-02-28T06:58:34;-2.30;99.90
24446;DHT22;13347;50.984;5.822;2023-02-28T07:01:01;-2.40;5.20
24446;DHT22;13347;50.984;5.822;2023-02-28T07:03:28;-2.20;38.50
24446;DHT22;13347;50.984;5.822;2023-02-28T07:05:55;-2.20;1.00
24446;DHT22;13347;50.984;5.822;2023-02-28T07:08:24;-2.10;1.00
24446;DHT22;13347;50.984;5.822;2023-02-28T07:10:52;-1.90;1.00
24446;DHT22;13347;50.984;5.822;2023-02-28T07:13:20;-1.80;1.00
24446;DHT22;13347;50.984;5.822;2023-02-28T07:15:52;-1.70;1.00
24446;DHT22;13347;50.984;5.822;2023-02-28T07:18:19;-1.70;99.90
24446;DHT22;13347;50.984;5.822;2023-02-28T07:20:46;-1.50;99.90
24446;DHT22;13347;50.984;5.822;2023-02-28T07:23:13;-1.40;99.90
24446;DHT22;13347;50.984;5.822;2023-02-28T07:25:41;-1.30;98.10
24446;DHT22;13347;50.984;5.822;2023-02-28T07:28:09;-1.30;1.00
24446;DHT22;13347;50.984;5.822;2023-02-28T07:30:36;-1.20;1.00
24446;DHT22;13347;50.984;5.822;2023-02-28T07:33:03;-1.30;1.00
24446;DHT22;13347;50.984;5.822;2023-02-28T07:35:30;-1.10;1.00
24446;DHT22;13347;50.984;5.822;2023-02-28T07:37:57;-1.00;1.00
24446;DHT22;13347;50.984;5.822;2023-02-28T07:40:24;-0.80;1.00
24446;DHT22;13347;50.984;5.822;2023-02-28T07:42:52;-0.70;1.00
24446;DHT22;13347;50.984;5.822;2023-02-28T07:45:19;-0.60;99.90
24446;DHT22;13347;50.984;5.822;2023-02-28T07:47:46;-0.50;99.90
24446;DHT22;13347;50.984;5.822;2023-02-28T07:50:14;-0.50;64.30
24446;DHT22;13347;50.984;5.822;2023-02-28T07:52:42;-0.50;1.00
24446;DHT22;13347;50.984;5.822;2023-02-28T07:55:09;-0.40;1.00
24446;DHT22;13347;50.984;5.822;2023-02-28T07:57:36;-0.30;1.00
24446;DHT22;13347;50.984;5.822;2023-02-28T08:00:06;0.00;1.00
24446;DHT22;13347;50.984;5.822;2023-02-28T08:02:35;0.00;99.90
24446;DHT22;13347;50.984;5.822;2023-02-28T08:05:02;0.40;99.90
24446;DHT22;13347;50.984;5.822;2023-02-28T08:07:29;0.50;1.00
24446;DHT22;13347;50.984;5.822;2023-02-28T08:09:56;0.80;1.00
24446;DHT22;13347;50.984;5.822;2023-02-28T08:12:23;1.00;99.90
24446;DHT22;13347;50.984;5.822;2023-02-28T08:14:50;1.00;1.00
24446;DHT22;13347;50.984;5.822;2023-02-28T08:17:18;0.90;1.00
24446;DHT22;13347;50.984;5.822;2023-02-28T08:19:45;0.80;1.00
24446;DHT22;13347;50.984;5.822;2023-02-28T08:22:12;0.90;1.00
24446;DHT22;13347;50.984;5.822;2023-02-28T08:24:40;1.00;1.00
24446;DHT22;13347;50.984;5.822;2023-02-28T08:27:07;1.30;1.00
24446;DHT22;13347;50.984;5.822;2023-02-28T08:29:36;1.30;1.00
24446;DHT22;13347;50.984;5.822;2023-02-28T08:32:03;1.30;1.00
24446;DHT22;13347;50.984;5.822;2023-02-28T08:34:31;1.40;99.90
24446;DHT22;13347;50.984;5.822;2023-02-28T08:36:58;1.60;99.90
24446;DHT22;13347;50.984;5.822;2023-02-28T08:39:25;1.90;99.90
24446;DHT22;13347;50.984;5.822;2023-02-28T08:41:52;1.80;99.90
24446;DHT22;13347;50.984;5.822;2023-02-28T08:44:19;2.00;99.90
24446;DHT22;13347;50.984;5.822;2023-02-28T08:46:46;2.00;1.00
24446;DHT22;13347;50.984;5.822;2023-02-28T08:49:13;2.20;1.00
24446;DHT22;13347;50.984;5.822;2023-02-28T08:51:42;2.70;1.00
24446;DHT22;13347;50.984;5.822;2023-02-28T08:54:09;3.40;1.00
24446;DHT22;13347;50.984;5.822;2023-02-28T08:56:38;3.40;1.00
24446;DHT22;13347;50.984;5.822;2023-02-28T08:59:05;3.20;1.00
24446;DHT22;13347;50.984;5.822;2023-02-28T09:01:32;2.90;99.90
24446;DHT22;13347;50.984;5.822;2023-02-28T09:03:59;3.00;99.90
24446;DHT22;13347;50.984;5.822;2023-02-28T09:06:27;3.50;99.90
24446;DHT22;13347;50.984;5.822;2023-02-28T09:08:57;4.00;99.90
24446;DHT22;13347;50.984;5.822;2023-02-28T09:11:26;4.70;99.90
24446;DHT22;13347;50.984;5.822;2023-02-28T09:13:53;5.10;99.90
24446;DHT22;13347;50.984;5.822;2023-02-28T09:16:21;5.40;97.00
24446;DHT22;13347;50.984;5.822;2023-02-28T09:18:48;5.80;1.00
24446;DHT22;13347;50.984;5.822;2023-02-28T09:21:16;5.90;1.00
24446;DHT22;13347;50.984;5.822;2023-02-28T09:23:43;5.80;1.00
24446;DHT22;13347;50.984;5.822;2023-02-28T09:26:14;6.10;1.00
24446;DHT22;13347;50.984;5.822;2023-02-28T09:28:41;6.00;1.00
24446;DHT22;13347;50.984;5.822;2023-02-28T09:31:11;6.20;1.00
24446;DHT22;13347;50.984;5.822;2023-02-28T09:33:38;5.80;1.00
24446;DHT22;13347;50.984;5.822;2023-02-28T09:36:05;5.80;1.00
24446;DHT22;13347;50.984;5.822;2023-02-28T09:38:32;5.70;1.00
24446;DHT22;13347;50.984;5.822;2023-02-28T09:41:00;5.70;1.00
24446;DHT22;13347;50.984;5.822;2023-02-28T09:43:31;5.80;1.00
24446;DHT22;13347;50.984;5.822;2023-02-28T09:46:00;6.20;1.00
24446;DHT22;13347;50.984;5.822;2023-02-28T09:48:31;6.60;1.00
24446;DHT22;13347;50.984;5.822;2023-02-28T09:51:01;6.30;1.00
24446;DHT22;13347;50.984;5.822;2023-02-28T09:53:30;6.30;1.00
24446;DHT22;13347;50.984;5.822;2023-02-28T09:56:01;6.20;1.00
24446;DHT22;13347;50.984;5.822;2023-02-28T09:58:31;6.10;1.00
24446;DHT22;13347;50.984;5.822;2023-02-28T10:01:00;5.90;1.00
24446;DHT22;13347;50.984;5.822;2023-02-28T10:03:30;5.90;1.00
24446;DHT22;13347;50.984;5.822;2023-02-28T10:06:00;6.10;1.00
24446;DHT22;13347;50.984;5.822;2023-02-28T10:08:31;6.00;1.00
24446;DHT22;13347;50.984;5.822;2023-02-28T10:11:00;6.20;1.00
24446;DHT22;13347;50.984;5.822;2023-02-28T10:13:33;6.70;1.00
24446;DHT22;13347;50.984;5.822;2023-02-28T10:16:01;6.40;1.00
24446;DHT22;13347;50.984;5.822;2023-02-28T10:18:30;6.60;1.00
24446;DHT22;13347;50.984;5.822;2023-02-28T10:21:02;6.60;1.00
24446;DHT22;13347;50.984;5.822;2023-02-28T10:23:31;6.90;1.00
24446;DHT22;13347;50.984;5.822;2023-02-28T10:25:59;6.70;1.00
24446;DHT22;13347;50.984;5.822;2023-02-28T10:28:27;6.80;1.00
24446;DHT22;13347;50.984;5.822;2023-02-28T10:30:57;6.80;1.00
24446;DHT22;13347;50.984;5.822;2023-02-28T10:33:25;6.90;1.00
24446;DHT22;13347;50.984;5.822;2023-02-28T10:35:54;6.90;1.00
24446;DHT22;13347;50.984;5.822;2023-02-28T10:38:22;7.10;1.00
24446;DHT22;13347;50.984;5.822;2023-02-28T10:40:49;7.40;1.00
24446;DHT22;13347;50.984;5.822;2023-02-28T10:43:20;7.20;1.00
24446;DHT22;13347;50.984;5.822;2023-02-28T10:45:55;7.10;1.00
24446;DHT22;13347;50.984;5.822;2023-02-28T10:48:27;7.00;1.00
24446;DHT22;13347;50.984;5.822;2023-02-28T10:50:55;6.90;1.00
24446;DHT22;13347;50.984;5.822;2023-02-28T10:53:33;7.10;1.00
24446;DHT22;13347;50.984;5.822;2023-02-28T10:56:03;7.00;1.00
24446;DHT22;13347;50.984;5.822;2023-02-28T10:58:31;6.70;1.00
24446;DHT22;13347;50.984;5.822;2023-02-28T11:00:59;7.00;1.00
24446;DHT22;13347;50.984;5.822;2023-02-28T11:03:31;6.60;1.00
24446;DHT22;13347;50.984;5.822;2023-02-28T11:06:03;6.10;1.00
24446;DHT22;13347;50.984;5.822;2023-02-28T11:08:30;6.30;1.00
24446;DHT22;13347;50.984;5.822;2023-02-28T11:10:57;6.40;1.00
24446;DHT22;13347;50.984;5.822;2023-02-28T11:13:26;6.70;1.00
24446;DHT22;13347;50.984;5.822;2023-02-28T11:15:54;6.80;1.00
24446;DHT22;13347;50.984;5.822;2023-02-28T11:18:23;7.10;1.00
24446;DHT22;13347;50.984;5.822;2023-02-28T11:20:53;7.00;1.00
24446;DHT22;13347;50.984;5.822;2023-02-28T11:23:21;6.80;1.00
24446;DHT22;13347;50.984;5.822;2023-02-28T11:25:49;6.40;1.00
24446;DHT22;13347;50.984;5.822;2023-02-28T11:28:24;6.50;1.00
24446;DHT22;13347;50.984;5.822;2023-02-28T11:30:59;6.80;1.00
24446;DHT22;13347;50.984;5.822;2023-02-28T11:33:27;6.50;1.00
24446;DHT22;13347;50.984;5.822;2023-02-28T11:35:57;6.30;1.00
24446;DHT22;13347;50.984;5.822;2023-02-28T11:38:26;6.50;1.00
24446;DHT22;13347;50.984;5.822;2023-02-28T11:40:58;6.80;1.00
24446;DHT22;13347;50.984;5.822;2023-02-28T11:43:30;6.80;1.00
24446;DHT22;13347;50.984;5.822;2023-02-28T11:46:07;6.70;1.00
24446;DHT22;13347;50.984;5.822;2023-02-28T11:48:42;7.00;1.00
24446;DHT22;13347;50.984;5.822;2023-02-28T11:51:13;6.90;1.00
24446;DHT22;13347;50.984;5.822;2023-02-28T11:53:48;7.60;1.00
24446;DHT22;13347;50.984;5.822;2023-02-28T11:56:18;7.80;1.00
24446;DHT22;13347;50.984;5.822;2023-02-28T11:58:49;7.40;1.00
24446;DHT22;13347;50.984;5.822;2023-02-28T12:01:21;7.20;1.00
24446;DHT22;13347;50.984;5.822;2023-02-28T12:03:55;7.10;1.00
24446;DHT22;13347;50.984;5.822;2023-02-28T12:06:27;7.70;1.00
24446;DHT22;13347;50.984;5.822;2023-02-28T12:09:02;7.80;1.00
24446;DHT22;13347;50.984;5.822;2023-02-28T12:11:33;7.50;1.00
24446;DHT22;13347;50.984;5.822;2023-02-28T12:14:13;7.20;1.00
24446;DHT22;13347;50.984;5.822;2023-02-28T12:16:43;7.40;1.00
24446;DHT22;13347;50.984;5.822;2023-02-28T12:19:17;7.10;21.30
24446;DHT22;13347;50.984;5.822;2023-02-28T12:21:51;7.30;1.00
24446;DHT22;13347;50.984;5.822;2023-02-28T12:24:25;7.60;1.00
24446;DHT22;13347;50.984;5.822;2023-02-28T12:26:55;7.60;1.00
24446;DHT22;13347;50.984;5.822;2023-02-28T12:29:24;7.50;1.00
24446;DHT22;13347;50.984;5.822;2023-02-28T12:31:53;7.80;1.00
24446;DHT22;13347;50.984;5.822;2023-02-28T12:34:22;7.60;1.00
24446;DHT22;13347;50.984;5.822;2023-02-28T12:36:52;7.90;1.00
24446;DHT22;13347;50.984;5.822;2023-02-28T12:39:21;7.80;1.00
24446;DHT22;13347;50.984;5.822;2023-02-28T12:41:51;7.60;1.00
24446;DHT22;13347;50.984;5.822;2023-02-28T12:44:20;7.00;1.00
24446;DHT22;13347;50.984;5.822;2023-02-28T12:46:48;6.30;1.00
24446;DHT22;13347;50.984;5.822;2023-02-28T12:49:16;6.30;1.00
24446;DHT22;13347;50.984;5.822;2023-02-28T12:51:45;6.70;1.00
24446;DHT22;13347;50.984;5.822;2023-02-28T12:54:16;7.00;1.00
24446;DHT22;13347;50.984;5.822;2023-02-28T12:56:47;7.00;1.00
24446;DHT22;13347;50.984;5.822;2023-02-28T12:59:17;7.60;1.00
24446;DHT22;13347;50.984;5.822;2023-02-28T13:04:57;7.90;1.00
24446;DHT22;13347;50.984;5.822;2023-02-28T13:07:35;7.50;1.00
24446;DHT22;13347;50.984;5.822;2023-02-28T13:10:06;7.30;1.00
24446;DHT22;13347;50.984;5.822;2023-02-28T13:12:34;7.60;1.00
24446;DHT22;13347;50.984;5.822;2023-02-28T13:15:03;7.30;1.00
24446;DHT22;13347;50.984;5.822;2023-02-28T13:17:31;7.30;1.00
24446;DHT22;13347;50.984;5.822;2023-02-28T13:19:58;7.40;1.00
24446;DHT22;13347;50.984;5.822;2023-02-28T13:22:39;7.30;1.00
24446;DHT22;13347;50.984;5.822;2023-02-28T13:27:53;7.40;1.00
24446;DHT22;13347;50.984;5.822;2023-02-28T13:33:24;7.80;1.00
24446;DHT22;13347;50.984;5.822;2023-02-28T13:36:00;8.00;1.00
24446;DHT22;13347;50.984;5.822;2023-02-28T13:38:36;7.60;1.00
24446;DHT22;13347;50.984;5.822;2023-02-28T13:44:01;7.60;1.00
24446;DHT22;13347;50.984;5.822;2023-02-28T13:46:29;7.30;1.00
24446;DHT22;13347;50.984;5.822;2023-02-28T13:48:56;7.30;1.00
24446;DHT22;13347;50.984;5.822;2023-02-28T13:51:38;7.20;1.00
24446;DHT22;13347;50.984;5.822;2023-02-28T13:54:10;7.30;1.00
24446;DHT22;13347;50.984;5.822;2023-02-28T13:56:44;6.70;1.00
24446;DHT22;13347;50.984;5.822;2023-02-28T13:59:19;6.70;1.00
24446;DHT22;13347;50.984;5.822;2023-02-28T14:01:53;6.90;1.00
24446;DHT22;13347;50.984;5.822;2023-02-28T14:07:08;6.90;99.90
24446;DHT22;13347;50.984;5.822;2023-02-28T14:09:37;7.10;1.00
24446;DHT22;13347;50.984;5.822;2023-02-28T14:15:00;7.40;1.00
24446;DHT22;13347;50.984;5.822;2023-02-28T14:17:27;7.40;1.00
24446;DHT22;13347;50.984;5.822;2023-02-28T14:19:54;7.40;1.00
24446;DHT22;13347;50.984;5.822;2023-02-28T14:22:42;7.40;1.00
24446;DHT22;13347;50.984;5.822;2023-02-28T14:25:16;7.50;1.00
24446;DHT22;13347;50.984;5.822;2023-02-28T14:27:47;7.50;1.00
24446;DHT22;13347;50.984;5.822;2023-02-28T14:30:20;7.80;1.00
24446;DHT22;13347;50.984;5.822;2023-02-28T14:32:58;8.10;1.00
24446;DHT22;13347;50.984;5.822;2023-02-28T14:35:35;7.70;1.00
24446;DHT22;13347;50.984;5.822;2023-02-28T14:38:07;7.70;1.00
24446;DHT22;13347;50.984;5.822;2023-02-28T14:40:39;7.90;1.00
24446;DHT22;13347;50.984;5.822;2023-02-28T14:43:17;8.00;1.00
24446;DHT22;13347;50.984;5.822;2023-02-28T14:45:48;7.90;1.00
24446;DHT22;13347;50.984;5.822;2023-02-28T14:48:15;7.50;1.00
24446;DHT22;13347;50.984;5.822;2023-02-28T14:50:48;7.50;1.00
24446;DHT22;13347;50.984;5.822;2023-02-28T14:53:15;7.80;1.00
24446;DHT22;13347;50.984;5.822;2023-02-28T14:55:45;8.10;1.00
24446;DHT22;13347;50.984;5.822;2023-02-28T14:58:19;8.00;1.00
24446;DHT22;13347;50.984;5.822;2023-02-28T15:00:50;8.00;1.00
24446;DHT22;13347;50.984;5.822;2023-02-28T15:03:18;7.80;1.00
24446;DHT22;13347;50.984;5.822;2023-02-28T15:05:51;7.50;1.00
24446;DHT22;13347;50.984;5.822;2023-02-28T15:08:18;7.20;1.00
24446;DHT22;13347;50.984;5.822;2023-02-28T15:10:45;7.40;1.00
24446;DHT22;13347;50.984;5.822;2023-02-28T15:13:17;7.20;1.00
24446;DHT22;13347;50.984;5.822;2023-02-28T15:15:46;6.80;1.00
24446;DHT22;13347;50.984;5.822;2023-02-28T15:18:20;6.90;1.00
24446;DHT22;13347;50.984;5.822;2023-02-28T15:20:50;6.80;1.00
24446;DHT22;13347;50.984;5.822;2023-02-28T15:23:17;6.90;1.00
24446;DHT22;13347;50.984;5.822;2023-02-28T15:25:44;6.90;1.00
24446;DHT22;13347;50.984;5.822;2023-02-28T15:28:14;6.90;1.00
24446;DHT22;13347;50.984;5.822;2023-02-28T15:30:50;6.90;1.00
24446;DHT22;13347;50.984;5.822;2023-02-28T15:33:19;6.90;1.00
24446;DHT22;13347;50.984;5.822;2023-02-28T15:35:47;6.50;1.00
24446;DHT22;13347;50.984;5.822;2023-02-28T15:38:15;6.40;1.00
24446;DHT22;13347;50.984;5.822;2023-02-28T15:40:43;6.20;1.00
24446;DHT22;13347;50.984;5.822;2023-02-28T15:43:13;6.20;1.00
24446;DHT22;13347;50.984;5.822;2023-02-28T15:45:41;6.10;1.00
24446;DHT22;13347;50.984;5.822;2023-02-28T15:48:14;5.90;1.00
24446;DHT22;13347;50.984;5.822;2023-02-28T15:50:43;5.90;1.00
24446;DHT22;13347;50.984;5.822;2023-02-28T15:53:15;5.70;1.00
24446;DHT22;13347;50.984;5.822;2023-02-28T15:55:42;5.70;1.00
24446;DHT22;13347;50.984;5.822;2023-02-28T15:58:09;5.60;1.00
24446;DHT22;13347;50.984;5.822;2023-02-28T16:00:38;5.40;1.00
24446;DHT22;13347;50.984;5.822;2023-02-28T16:05:50;5.20;1.00
24446;DHT22;13347;50.984;5.822;2023-02-28T16:08:32;5.20;1.00
24446;DHT22;13347;50.984;5.822;2023-02-28T16:10:59;5.10;1.00
24446;DHT22;13347;50.984;5.822;2023-02-28T16:13:26;5.10;1.00
24446;DHT22;13347;50.984;5.822;2023-02-28T16:15:53;5.10;1.00
24446;DHT22;13347;50.984;5.822;2023-02-28T16:18:20;5.10;1.00
24446;DHT22;13347;50.984;5.822;2023-02-28T16:20:48;5.00;1.00
24446;DHT22;13347;50.984;5.822;2023-02-28T16:23:15;5.00;1.00
24446;DHT22;13347;50.984;5.822;2023-02-28T16:25:42;4.90;1.00
24446;DHT22;13347;50.984;5.822;2023-02-28T16:28:12;4.90;1.00